<?xml version="1.0" encoding="utf-8"?>
<gpx xmlns:xsi="http://www.w3.org/2001/XMLSchema-instance" xmlns:xsd="http://www.w3.org/2001/XMLSchema" version="1.1" creator="Shapelink.com" xmlns="http://www.topografix.com/GPX/1/1" xmlns:gpxtpx="http://www.garmin.com/xmlschemas/TrackPointExtension/v1">
  <metadata>
    <name>Sykling 19.74 km, 2012-07-30</name>
    <desc></desc>
    <author><name>Mikael Blom</name></author> 
    <time>2012-07-30T20:44:38Z</time>
  </metadata>
  <trk>
    <name>Sykling 19.74 km, 2012-07-30</name>
    <trkseg>
      <trkpt lat="59.978938" lon="17.7393793">
        <ele>35.7061</ele>
        <time>2012-07-30T20:44:38Z</time>
      </trkpt>
      <trkpt lat="59.978921" lon="17.7393632">
        <ele>36.1868</ele>
        <time>2012-07-30T20:44:39Z</time>
      </trkpt>
      <trkpt lat="59.9787029" lon="17.7392704">
        <ele>33.7834</ele>
        <time>2012-07-30T20:44:46Z</time>
      </trkpt>
      <trkpt lat="59.9784169" lon="17.7392201">
        <ele>31.8607</ele>
        <time>2012-07-30T20:44:53Z</time>
      </trkpt>
      <trkpt lat="59.9782786" lon="17.7391875">
        <ele>30.8995</ele>
        <time>2012-07-30T20:44:56Z</time>
      </trkpt>
      <trkpt lat="59.9780766" lon="17.7390829">
        <ele>29.4575</ele>
        <time>2012-07-30T20:45:00Z</time>
      </trkpt>
      <trkpt lat="59.9777779" lon="17.7389425">
        <ele>28.4962</ele>
        <time>2012-07-30T20:45:05Z</time>
      </trkpt>
      <trkpt lat="59.977495" lon="17.7389813">
        <ele>27.5349</ele>
        <time>2012-07-30T20:45:09Z</time>
      </trkpt>
      <trkpt lat="59.9768226" lon="17.7393235">
        <ele>24.651</ele>
        <time>2012-07-30T20:45:18Z</time>
      </trkpt>
      <trkpt lat="59.9767468" lon="17.7393641">
        <ele>24.1703</ele>
        <time>2012-07-30T20:45:19Z</time>
      </trkpt>
      <trkpt lat="59.9765315" lon="17.7395707">
        <ele>23.6896</ele>
        <time>2012-07-30T20:45:22Z</time>
      </trkpt>
      <trkpt lat="59.9762367" lon="17.739663">
        <ele>23.209</ele>
        <time>2012-07-30T20:45:26Z</time>
      </trkpt>
      <trkpt lat="59.9760952" lon="17.7394792">
        <ele>22.7283</ele>
        <time>2012-07-30T20:45:28Z</time>
      </trkpt>
      <trkpt lat="59.9755165" lon="17.738454">
        <ele>23.209</ele>
        <time>2012-07-30T20:45:37Z</time>
      </trkpt>
      <trkpt lat="59.9751618" lon="17.737823">
        <ele>24.1703</ele>
        <time>2012-07-30T20:45:43Z</time>
      </trkpt>
      <trkpt lat="59.9747392" lon="17.7369335">
        <ele>24.1703</ele>
        <time>2012-07-30T20:45:51Z</time>
      </trkpt>
      <trkpt lat="59.974518" lon="17.7361473">
        <ele>24.1703</ele>
        <time>2012-07-30T20:45:57Z</time>
      </trkpt>
      <trkpt lat="59.9743771" lon="17.73532">
        <ele>24.1703</ele>
        <time>2012-07-30T20:46:03Z</time>
      </trkpt>
      <trkpt lat="59.9743251" lon="17.7342789">
        <ele>24.651</ele>
        <time>2012-07-30T20:46:10Z</time>
      </trkpt>
      <trkpt lat="59.9743874" lon="17.7331403">
        <ele>25.6123</ele>
        <time>2012-07-30T20:46:18Z</time>
      </trkpt>
      <trkpt lat="59.9743874" lon="17.7320451">
        <ele>26.5736</ele>
        <time>2012-07-30T20:46:26Z</time>
      </trkpt>
      <trkpt lat="59.9744071" lon="17.7309299">
        <ele>27.5349</ele>
        <time>2012-07-30T20:46:34Z</time>
      </trkpt>
      <trkpt lat="59.9745106" lon="17.7295601">
        <ele>28.4962</ele>
        <time>2012-07-30T20:46:44Z</time>
      </trkpt>
      <trkpt lat="59.9744981" lon="17.7284806">
        <ele>28.4962</ele>
        <time>2012-07-30T20:46:52Z</time>
      </trkpt>
      <trkpt lat="59.9744704" lon="17.7273226">
        <ele>28.9769</ele>
        <time>2012-07-30T20:47:01Z</time>
      </trkpt>
      <trkpt lat="59.9744538" lon="17.7264661">
        <ele>29.4575</ele>
        <time>2012-07-30T20:47:09Z</time>
      </trkpt>
      <trkpt lat="59.9743755" lon="17.7253613">
        <ele>28.4962</ele>
        <time>2012-07-30T20:47:19Z</time>
      </trkpt>
      <trkpt lat="59.9742605" lon="17.724515">
        <ele>28.4962</ele>
        <time>2012-07-30T20:47:26Z</time>
      </trkpt>
      <trkpt lat="59.9740424" lon="17.723122">
        <ele>28.4962</ele>
        <time>2012-07-30T20:47:37Z</time>
      </trkpt>
      <trkpt lat="59.9738469" lon="17.7223174">
        <ele>30.4188</ele>
        <time>2012-07-30T20:47:44Z</time>
      </trkpt>
      <trkpt lat="59.9735489" lon="17.7215353">
        <ele>30.4188</ele>
        <time>2012-07-30T20:47:52Z</time>
      </trkpt>
      <trkpt lat="59.9731892" lon="17.7208914">
        <ele>30.8995</ele>
        <time>2012-07-30T20:48:00Z</time>
      </trkpt>
      <trkpt lat="59.9727254" lon="17.7203044">
        <ele>31.3801</ele>
        <time>2012-07-30T20:48:09Z</time>
      </trkpt>
      <trkpt lat="59.9722456" lon="17.7198736">
        <ele>31.3801</ele>
        <time>2012-07-30T20:48:17Z</time>
      </trkpt>
      <trkpt lat="59.9716429" lon="17.719337">
        <ele>31.3801</ele>
        <time>2012-07-30T20:48:27Z</time>
      </trkpt>
      <trkpt lat="59.9710007" lon="17.7187566">
        <ele>31.3801</ele>
        <time>2012-07-30T20:48:38Z</time>
      </trkpt>
      <trkpt lat="59.97044" lon="17.7182469">
        <ele>31.8607</ele>
        <time>2012-07-30T20:48:48Z</time>
      </trkpt>
      <trkpt lat="59.969937" lon="17.7178113">
        <ele>32.3416</ele>
        <time>2012-07-30T20:48:57Z</time>
      </trkpt>
      <trkpt lat="59.9694507" lon="17.7174876">
        <ele>33.3029</ele>
        <time>2012-07-30T20:49:05Z</time>
      </trkpt>
      <trkpt lat="59.9690146" lon="17.7172737">
        <ele>33.7834</ele>
        <time>2012-07-30T20:49:12Z</time>
      </trkpt>
      <trkpt lat="59.968484" lon="17.7170286">
        <ele>32.8223</ele>
        <time>2012-07-30T20:49:20Z</time>
      </trkpt>
      <trkpt lat="59.9681501" lon="17.7167173">
        <ele>31.3801</ele>
        <time>2012-07-30T20:49:25Z</time>
      </trkpt>
      <trkpt lat="59.9678916" lon="17.7162982">
        <ele>29.9381</ele>
        <time>2012-07-30T20:49:29Z</time>
      </trkpt>
      <trkpt lat="59.9676751" lon="17.7157093">
        <ele>28.4962</ele>
        <time>2012-07-30T20:49:33Z</time>
      </trkpt>
      <trkpt lat="59.9675619" lon="17.7152015">
        <ele>26.5736</ele>
        <time>2012-07-30T20:49:36Z</time>
      </trkpt>
      <trkpt lat="59.9674257" lon="17.714163">
        <ele>28.4962</ele>
        <time>2012-07-30T20:49:43Z</time>
      </trkpt>
      <trkpt lat="59.9673554" lon="17.7136267">
        <ele>29.4575</ele>
        <time>2012-07-30T20:49:48Z</time>
      </trkpt>
      <trkpt lat="59.9672323" lon="17.7129559">
        <ele>30.8995</ele>
        <time>2012-07-30T20:49:56Z</time>
      </trkpt>
      <trkpt lat="59.9670141" lon="17.7122316">
        <ele>31.3801</ele>
        <time>2012-07-30T20:50:05Z</time>
      </trkpt>
      <trkpt lat="59.9667178" lon="17.7114264">
        <ele>30.8995</ele>
        <time>2012-07-30T20:50:14Z</time>
      </trkpt>
      <trkpt lat="59.9664891" lon="17.710651">
        <ele>30.8995</ele>
        <time>2012-07-30T20:50:21Z</time>
      </trkpt>
      <trkpt lat="59.9661745" lon="17.7095274">
        <ele>29.9381</ele>
        <time>2012-07-30T20:50:30Z</time>
      </trkpt>
      <trkpt lat="59.9657994" lon="17.7084264">
        <ele>29.4575</ele>
        <time>2012-07-30T20:50:39Z</time>
      </trkpt>
      <trkpt lat="59.9655071" lon="17.7080207">
        <ele>29.9381</ele>
        <time>2012-07-30T20:50:44Z</time>
      </trkpt>
      <trkpt lat="59.9649348" lon="17.7075626">
        <ele>30.4188</ele>
        <time>2012-07-30T20:50:53Z</time>
      </trkpt>
      <trkpt lat="59.9644608" lon="17.7072634">
        <ele>30.4188</ele>
        <time>2012-07-30T20:51:01Z</time>
      </trkpt>
      <trkpt lat="59.963922" lon="17.7071263">
        <ele>30.4188</ele>
        <time>2012-07-30T20:51:10Z</time>
      </trkpt>
      <trkpt lat="59.9632376" lon="17.7070764">
        <ele>29.9381</ele>
        <time>2012-07-30T20:51:21Z</time>
      </trkpt>
      <trkpt lat="59.9626817" lon="17.7070501">
        <ele>30.4188</ele>
        <time>2012-07-30T20:51:30Z</time>
      </trkpt>
      <trkpt lat="59.9621441" lon="17.7068253">
        <ele>30.4188</ele>
        <time>2012-07-30T20:51:39Z</time>
      </trkpt>
      <trkpt lat="59.961732" lon="17.7065033">
        <ele>29.9381</ele>
        <time>2012-07-30T20:51:46Z</time>
      </trkpt>
      <trkpt lat="59.9614175" lon="17.7060502">
        <ele>28.9769</ele>
        <time>2012-07-30T20:51:52Z</time>
      </trkpt>
      <trkpt lat="59.9610847" lon="17.7054423">
        <ele>28.0155</ele>
        <time>2012-07-30T20:51:59Z</time>
      </trkpt>
      <trkpt lat="59.960829" lon="17.7050656">
        <ele>28.0155</ele>
        <time>2012-07-30T20:52:04Z</time>
      </trkpt>
      <trkpt lat="59.9603774" lon="17.7044768">
        <ele>27.5349</ele>
        <time>2012-07-30T20:52:12Z</time>
      </trkpt>
      <trkpt lat="59.9601088" lon="17.7040597">
        <ele>28.9769</ele>
        <time>2012-07-30T20:52:17Z</time>
      </trkpt>
      <trkpt lat="59.9599301" lon="17.7035242">
        <ele>30.4188</ele>
        <time>2012-07-30T20:52:22Z</time>
      </trkpt>
      <trkpt lat="59.9596712" lon="17.7026712">
        <ele>30.8995</ele>
        <time>2012-07-30T20:52:30Z</time>
      </trkpt>
      <trkpt lat="59.9593627" lon="17.7014975">
        <ele>31.3801</ele>
        <time>2012-07-30T20:52:40Z</time>
      </trkpt>
      <trkpt lat="59.9592446" lon="17.7006662">
        <ele>31.3801</ele>
        <time>2012-07-30T20:52:46Z</time>
      </trkpt>
      <trkpt lat="59.9591382" lon="17.6994649">
        <ele>31.8607</ele>
        <time>2012-07-30T20:52:54Z</time>
      </trkpt>
      <trkpt lat="59.959104" lon="17.6984849">
        <ele>32.8223</ele>
        <time>2012-07-30T20:53:01Z</time>
      </trkpt>
      <trkpt lat="59.9590256" lon="17.6975192">
        <ele>31.8607</ele>
        <time>2012-07-30T20:53:08Z</time>
      </trkpt>
      <trkpt lat="59.9588414" lon="17.6966557">
        <ele>30.8995</ele>
        <time>2012-07-30T20:53:14Z</time>
      </trkpt>
      <trkpt lat="59.9585731" lon="17.6958972">
        <ele>30.4188</ele>
        <time>2012-07-30T20:53:20Z</time>
      </trkpt>
      <trkpt lat="59.9581893" lon="17.6949219">
        <ele>29.4575</ele>
        <time>2012-07-30T20:53:28Z</time>
      </trkpt>
      <trkpt lat="59.9576754" lon="17.6934773">
        <ele>28.4962</ele>
        <time>2012-07-30T20:53:40Z</time>
      </trkpt>
      <trkpt lat="59.9572986" lon="17.6924147">
        <ele>28.0155</ele>
        <time>2012-07-30T20:53:49Z</time>
      </trkpt>
      <trkpt lat="59.9570422" lon="17.6917803">
        <ele>28.4962</ele>
        <time>2012-07-30T20:53:55Z</time>
      </trkpt>
      <trkpt lat="59.9569392" lon="17.691629">
        <ele>28.9769</ele>
        <time>2012-07-30T20:53:57Z</time>
      </trkpt>
      <trkpt lat="59.9567749" lon="17.691268">
        <ele>28.9769</ele>
        <time>2012-07-30T20:54:01Z</time>
      </trkpt>
      <trkpt lat="59.9565159" lon="17.6905651">
        <ele>29.9381</ele>
        <time>2012-07-30T20:54:09Z</time>
      </trkpt>
      <trkpt lat="59.956316" lon="17.6899433">
        <ele>29.9381</ele>
        <time>2012-07-30T20:54:16Z</time>
      </trkpt>
      <trkpt lat="59.9561933" lon="17.6893012">
        <ele>28.9769</ele>
        <time>2012-07-30T20:54:22Z</time>
      </trkpt>
      <trkpt lat="59.9560948" lon="17.6891103">
        <ele>28.4962</ele>
        <time>2012-07-30T20:54:25Z</time>
      </trkpt>
      <trkpt lat="59.9560453" lon="17.6891242">
        <ele>28.4962</ele>
        <time>2012-07-30T20:54:26Z</time>
      </trkpt>
      <trkpt lat="59.9557399" lon="17.6893613">
        <ele>28.9769</ele>
        <time>2012-07-30T20:54:32Z</time>
      </trkpt>
      <trkpt lat="59.955413" lon="17.6898492">
        <ele>29.4575</ele>
        <time>2012-07-30T20:54:39Z</time>
      </trkpt>
      <trkpt lat="59.9551703" lon="17.6905235">
        <ele>28.9769</ele>
        <time>2012-07-30T20:54:46Z</time>
      </trkpt>
      <trkpt lat="59.9550796" lon="17.6909504">
        <ele>28.9769</ele>
        <time>2012-07-30T20:54:50Z</time>
      </trkpt>
      <trkpt lat="59.955" lon="17.6920153">
        <ele>29.4575</ele>
        <time>2012-07-30T20:54:59Z</time>
      </trkpt>
      <trkpt lat="59.9549966" lon="17.6921367">
        <ele>29.4575</ele>
        <time>2012-07-30T20:55:00Z</time>
      </trkpt>
      <trkpt lat="59.9549329" lon="17.6925626">
        <ele>29.4575</ele>
        <time>2012-07-30T20:55:04Z</time>
      </trkpt>
      <trkpt lat="59.9548956" lon="17.6927789">
        <ele>29.9381</ele>
        <time>2012-07-30T20:55:06Z</time>
      </trkpt>
      <trkpt lat="59.9548495" lon="17.6938379">
        <ele>29.9381</ele>
        <time>2012-07-30T20:55:14Z</time>
      </trkpt>
      <trkpt lat="59.954785" lon="17.6951958">
        <ele>30.8995</ele>
        <time>2012-07-30T20:55:24Z</time>
      </trkpt>
      <trkpt lat="59.9546503" lon="17.6960811">
        <ele>31.8607</ele>
        <time>2012-07-30T20:55:31Z</time>
      </trkpt>
      <trkpt lat="59.9544704" lon="17.6967454">
        <ele>32.3416</ele>
        <time>2012-07-30T20:55:37Z</time>
      </trkpt>
      <trkpt lat="59.9541999" lon="17.6973867">
        <ele>32.8223</ele>
        <time>2012-07-30T20:55:44Z</time>
      </trkpt>
      <trkpt lat="59.9538696" lon="17.6979066">
        <ele>32.8223</ele>
        <time>2012-07-30T20:55:51Z</time>
      </trkpt>
      <trkpt lat="59.9534276" lon="17.69855">
        <ele>33.3029</ele>
        <time>2012-07-30T20:56:00Z</time>
      </trkpt>
      <trkpt lat="59.9531473" lon="17.6990412">
        <ele>33.3029</ele>
        <time>2012-07-30T20:56:06Z</time>
      </trkpt>
      <trkpt lat="59.9529276" lon="17.699667">
        <ele>33.3029</ele>
        <time>2012-07-30T20:56:12Z</time>
      </trkpt>
      <trkpt lat="59.952594" lon="17.7007473">
        <ele>33.7834</ele>
        <time>2012-07-30T20:56:21Z</time>
      </trkpt>
      <trkpt lat="59.9522301" lon="17.7017771">
        <ele>32.8223</ele>
        <time>2012-07-30T20:56:30Z</time>
      </trkpt>
      <trkpt lat="59.9519529" lon="17.7024439">
        <ele>29.9381</ele>
        <time>2012-07-30T20:56:35Z</time>
      </trkpt>
      <trkpt lat="59.9518129" lon="17.7028391">
        <ele>28.4962</ele>
        <time>2012-07-30T20:56:38Z</time>
      </trkpt>
      <trkpt lat="59.9515653" lon="17.7033661">
        <ele>28.4962</ele>
        <time>2012-07-30T20:56:43Z</time>
      </trkpt>
      <trkpt lat="59.9514266" lon="17.7035629">
        <ele>32.3416</ele>
        <time>2012-07-30T20:56:47Z</time>
      </trkpt>
      <trkpt lat="59.9513515" lon="17.7036914">
        <ele>34.2642</ele>
        <time>2012-07-30T20:56:50Z</time>
      </trkpt>
      <trkpt lat="59.9512354" lon="17.7038713">
        <ele>37.1481</ele>
        <time>2012-07-30T20:56:55Z</time>
      </trkpt>
      <trkpt lat="59.9510529" lon="17.7041743">
        <ele>39.0707</ele>
        <time>2012-07-30T20:57:02Z</time>
      </trkpt>
      <trkpt lat="59.9507823" lon="17.7045656">
        <ele>40.0321</ele>
        <time>2012-07-30T20:57:11Z</time>
      </trkpt>
      <trkpt lat="59.9505832" lon="17.7049015">
        <ele>41.474</ele>
        <time>2012-07-30T20:57:19Z</time>
      </trkpt>
      <trkpt lat="59.9504555" lon="17.7052352">
        <ele>42.4354</ele>
        <time>2012-07-30T20:57:26Z</time>
      </trkpt>
      <trkpt lat="59.9503617" lon="17.7055856">
        <ele>42.4354</ele>
        <time>2012-07-30T20:57:32Z</time>
      </trkpt>
      <trkpt lat="59.9503073" lon="17.7060338">
        <ele>41.474</ele>
        <time>2012-07-30T20:57:38Z</time>
      </trkpt>
      <trkpt lat="59.9502999" lon="17.7064962">
        <ele>40.5128</ele>
        <time>2012-07-30T20:57:43Z</time>
      </trkpt>
      <trkpt lat="59.950312" lon="17.7069164">
        <ele>39.5513</ele>
        <time>2012-07-30T20:57:47Z</time>
      </trkpt>
      <trkpt lat="59.9504878" lon="17.7075579">
        <ele>39.0707</ele>
        <time>2012-07-30T20:57:53Z</time>
      </trkpt>
      <trkpt lat="59.950723" lon="17.7080388">
        <ele>39.0707</ele>
        <time>2012-07-30T20:57:58Z</time>
      </trkpt>
      <trkpt lat="59.9510262" lon="17.708367">
        <ele>38.5901</ele>
        <time>2012-07-30T20:58:03Z</time>
      </trkpt>
      <trkpt lat="59.9514427" lon="17.7085678">
        <ele>39.0707</ele>
        <time>2012-07-30T20:58:09Z</time>
      </trkpt>
      <trkpt lat="59.9516515" lon="17.7087037">
        <ele>38.5901</ele>
        <time>2012-07-30T20:58:12Z</time>
      </trkpt>
      <trkpt lat="59.9521551" lon="17.708958">
        <ele>38.5901</ele>
        <time>2012-07-30T20:58:19Z</time>
      </trkpt>
      <trkpt lat="59.9523035" lon="17.7089573">
        <ele>38.1094</ele>
        <time>2012-07-30T20:58:21Z</time>
      </trkpt>
      <trkpt lat="59.9527347" lon="17.7091413">
        <ele>39.0707</ele>
        <time>2012-07-30T20:58:27Z</time>
      </trkpt>
      <trkpt lat="59.9528049" lon="17.7091652">
        <ele>38.5901</ele>
        <time>2012-07-30T20:58:28Z</time>
      </trkpt>
      <trkpt lat="59.9530751" lon="17.7091455">
        <ele>38.5901</ele>
        <time>2012-07-30T20:58:32Z</time>
      </trkpt>
      <trkpt lat="59.9535671" lon="17.7094827">
        <ele>39.5513</ele>
        <time>2012-07-30T20:58:39Z</time>
      </trkpt>
      <trkpt lat="59.9540424" lon="17.7099645">
        <ele>38.5901</ele>
        <time>2012-07-30T20:58:46Z</time>
      </trkpt>
      <trkpt lat="59.9544915" lon="17.7105949">
        <ele>38.1094</ele>
        <time>2012-07-30T20:58:53Z</time>
      </trkpt>
      <trkpt lat="59.9548137" lon="17.7112019">
        <ele>37.1481</ele>
        <time>2012-07-30T20:58:59Z</time>
      </trkpt>
      <trkpt lat="59.9551501" lon="17.7120864">
        <ele>37.6287</ele>
        <time>2012-07-30T20:59:07Z</time>
      </trkpt>
      <trkpt lat="59.9553753" lon="17.7129071">
        <ele>38.5901</ele>
        <time>2012-07-30T20:59:14Z</time>
      </trkpt>
      <trkpt lat="59.9556478" lon="17.7140697">
        <ele>39.5513</ele>
        <time>2012-07-30T20:59:24Z</time>
      </trkpt>
      <trkpt lat="59.9559007" lon="17.7149419">
        <ele>40.5128</ele>
        <time>2012-07-30T20:59:32Z</time>
      </trkpt>
      <trkpt lat="59.9561897" lon="17.7156497">
        <ele>41.474</ele>
        <time>2012-07-30T20:59:39Z</time>
      </trkpt>
      <trkpt lat="59.956529" lon="17.7163783">
        <ele>42.916</ele>
        <time>2012-07-30T20:59:47Z</time>
      </trkpt>
      <trkpt lat="59.956568" lon="17.7164514">
        <ele>43.3966</ele>
        <time>2012-07-30T20:59:48Z</time>
      </trkpt>
      <trkpt lat="59.9567472" lon="17.7165474">
        <ele>44.358</ele>
        <time>2012-07-30T20:59:52Z</time>
      </trkpt>
      <trkpt lat="59.9567978" lon="17.7164914">
        <ele>44.358</ele>
        <time>2012-07-30T20:59:53Z</time>
      </trkpt>
      <trkpt lat="59.9571737" lon="17.7158653">
        <ele>43.3966</ele>
        <time>2012-07-30T21:00:00Z</time>
      </trkpt>
      <trkpt lat="59.9574486" lon="17.7153609">
        <ele>42.4354</ele>
        <time>2012-07-30T21:00:05Z</time>
      </trkpt>
      <trkpt lat="59.9579441" lon="17.7144053">
        <ele>40.9934</ele>
        <time>2012-07-30T21:00:14Z</time>
      </trkpt>
      <trkpt lat="59.9581093" lon="17.7140898">
        <ele>40.5128</ele>
        <time>2012-07-30T21:00:17Z</time>
      </trkpt>
      <trkpt lat="59.9582353" lon="17.7135277">
        <ele>39.0707</ele>
        <time>2012-07-30T21:00:21Z</time>
      </trkpt>
      <trkpt lat="59.958356" lon="17.7124872">
        <ele>38.1094</ele>
        <time>2012-07-30T21:00:27Z</time>
      </trkpt>
      <trkpt lat="59.958473" lon="17.7114013">
        <ele>38.1094</ele>
        <time>2012-07-30T21:00:34Z</time>
      </trkpt>
      <trkpt lat="59.9584872" lon="17.711257">
        <ele>37.6287</ele>
        <time>2012-07-30T21:00:35Z</time>
      </trkpt>
      <trkpt lat="59.9585884" lon="17.7109295">
        <ele>38.1094</ele>
        <time>2012-07-30T21:00:38Z</time>
      </trkpt>
      <trkpt lat="59.9587071" lon="17.7109638">
        <ele>37.6287</ele>
        <time>2012-07-30T21:00:40Z</time>
      </trkpt>
      <trkpt lat="59.9588879" lon="17.7110039">
        <ele>37.6287</ele>
        <time>2012-07-30T21:00:43Z</time>
      </trkpt>
      <trkpt lat="59.9594465" lon="17.7111943">
        <ele>36.6675</ele>
        <time>2012-07-30T21:00:51Z</time>
      </trkpt>
      <trkpt lat="59.9596631" lon="17.711244">
        <ele>36.1868</ele>
        <time>2012-07-30T21:00:54Z</time>
      </trkpt>
      <trkpt lat="59.9599394" lon="17.7112803">
        <ele>36.1868</ele>
        <time>2012-07-30T21:00:58Z</time>
      </trkpt>
      <trkpt lat="59.9600401" lon="17.7109808">
        <ele>36.6675</ele>
        <time>2012-07-30T21:01:01Z</time>
      </trkpt>
      <trkpt lat="59.9601169" lon="17.7099327">
        <ele>38.5901</ele>
        <time>2012-07-30T21:01:09Z</time>
      </trkpt>
      <trkpt lat="59.9601442" lon="17.7095822">
        <ele>39.0707</ele>
        <time>2012-07-30T21:01:12Z</time>
      </trkpt>
      <trkpt lat="59.9601214" lon="17.7092434">
        <ele>38.5901</ele>
        <time>2012-07-30T21:01:16Z</time>
      </trkpt>
      <trkpt lat="59.9601551" lon="17.7092657">
        <ele>38.1094</ele>
        <time>2012-07-30T21:01:19Z</time>
      </trkpt>
      <trkpt lat="59.9601441" lon="17.709461">
        <ele>38.1094</ele>
        <time>2012-07-30T21:01:22Z</time>
      </trkpt>
      <trkpt lat="59.9601044" lon="17.7099309">
        <ele>37.1481</ele>
        <time>2012-07-30T21:01:27Z</time>
      </trkpt>
      <trkpt lat="59.9600386" lon="17.7106529">
        <ele>35.7061</ele>
        <time>2012-07-30T21:01:33Z</time>
      </trkpt>
      <trkpt lat="59.9599858" lon="17.7111434">
        <ele>36.1868</ele>
        <time>2012-07-30T21:01:37Z</time>
      </trkpt>
      <trkpt lat="59.9598702" lon="17.711226">
        <ele>36.1868</ele>
        <time>2012-07-30T21:01:39Z</time>
      </trkpt>
      <trkpt lat="59.9598153" lon="17.7112221">
        <ele>36.6675</ele>
        <time>2012-07-30T21:01:40Z</time>
      </trkpt>
      <trkpt lat="59.9594253" lon="17.7110995">
        <ele>38.5901</ele>
        <time>2012-07-30T21:01:47Z</time>
      </trkpt>
      <trkpt lat="59.9590974" lon="17.7109897">
        <ele>38.1094</ele>
        <time>2012-07-30T21:01:53Z</time>
      </trkpt>
      <trkpt lat="59.9587689" lon="17.7108905">
        <ele>38.5901</ele>
        <time>2012-07-30T21:01:59Z</time>
      </trkpt>
      <trkpt lat="59.9585722" lon="17.7107717">
        <ele>39.0707</ele>
        <time>2012-07-30T21:02:03Z</time>
      </trkpt>
      <trkpt lat="59.9585638" lon="17.7104693">
        <ele>39.0707</ele>
        <time>2012-07-30T21:02:06Z</time>
      </trkpt>
      <trkpt lat="59.9585796" lon="17.7103591">
        <ele>39.0707</ele>
        <time>2012-07-30T21:02:07Z</time>
      </trkpt>
      <trkpt lat="59.9586798" lon="17.7096112">
        <ele>37.1481</ele>
        <time>2012-07-30T21:02:13Z</time>
      </trkpt>
      <trkpt lat="59.9587839" lon="17.7087944">
        <ele>34.2642</ele>
        <time>2012-07-30T21:02:18Z</time>
      </trkpt>
      <trkpt lat="59.9589371" lon="17.7077589">
        <ele>31.3801</ele>
        <time>2012-07-30T21:02:23Z</time>
      </trkpt>
      <trkpt lat="59.9591236" lon="17.7069735">
        <ele>31.8607</ele>
        <time>2012-07-30T21:02:27Z</time>
      </trkpt>
      <trkpt lat="59.9593615" lon="17.7062576">
        <ele>32.8223</ele>
        <time>2012-07-30T21:02:32Z</time>
      </trkpt>
      <trkpt lat="59.9597192" lon="17.705352">
        <ele>32.3416</ele>
        <time>2012-07-30T21:02:39Z</time>
      </trkpt>
      <trkpt lat="59.9599841" lon="17.7046616">
        <ele>32.8223</ele>
        <time>2012-07-30T21:02:45Z</time>
      </trkpt>
      <trkpt lat="59.9600722" lon="17.7044394">
        <ele>32.3416</ele>
        <time>2012-07-30T21:02:48Z</time>
      </trkpt>
      <trkpt lat="59.9602297" lon="17.7044342">
        <ele>30.8995</ele>
        <time>2012-07-30T21:02:53Z</time>
      </trkpt>
      <trkpt lat="59.9602674" lon="17.7044766">
        <ele>30.8995</ele>
        <time>2012-07-30T21:02:54Z</time>
      </trkpt>
      <trkpt lat="59.9603488" lon="17.7045819">
        <ele>29.9381</ele>
        <time>2012-07-30T21:02:56Z</time>
      </trkpt>
      <trkpt lat="59.9606626" lon="17.7049595">
        <ele>29.4575</ele>
        <time>2012-07-30T21:03:02Z</time>
      </trkpt>
      <trkpt lat="59.9607198" lon="17.7050334">
        <ele>29.4575</ele>
        <time>2012-07-30T21:03:03Z</time>
      </trkpt>
      <trkpt lat="59.9611627" lon="17.7057136">
        <ele>28.0155</ele>
        <time>2012-07-30T21:03:11Z</time>
      </trkpt>
      <trkpt lat="59.9616609" lon="17.7065369">
        <ele>27.5349</ele>
        <time>2012-07-30T21:03:20Z</time>
      </trkpt>
      <trkpt lat="59.9620625" lon="17.7068785">
        <ele>28.0155</ele>
        <time>2012-07-30T21:03:26Z</time>
      </trkpt>
      <trkpt lat="59.9627245" lon="17.7071583">
        <ele>27.5349</ele>
        <time>2012-07-30T21:03:35Z</time>
      </trkpt>
      <trkpt lat="59.9632915" lon="17.7071754">
        <ele>27.0543</ele>
        <time>2012-07-30T21:03:42Z</time>
      </trkpt>
      <trkpt lat="59.9640593" lon="17.7072403">
        <ele>26.5736</ele>
        <time>2012-07-30T21:03:51Z</time>
      </trkpt>
      <trkpt lat="59.9646586" lon="17.7074659">
        <ele>26.5736</ele>
        <time>2012-07-30T21:03:58Z</time>
      </trkpt>
      <trkpt lat="59.9652487" lon="17.7079228">
        <ele>27.0543</ele>
        <time>2012-07-30T21:04:05Z</time>
      </trkpt>
      <trkpt lat="59.9656454" lon="17.7083358">
        <ele>27.5349</ele>
        <time>2012-07-30T21:04:10Z</time>
      </trkpt>
      <trkpt lat="59.9658889" lon="17.7088378">
        <ele>27.5349</ele>
        <time>2012-07-30T21:04:14Z</time>
      </trkpt>
      <trkpt lat="59.9662268" lon="17.709968">
        <ele>27.5349</ele>
        <time>2012-07-30T21:04:22Z</time>
      </trkpt>
      <trkpt lat="59.9665151" lon="17.7110184">
        <ele>28.0155</ele>
        <time>2012-07-30T21:04:30Z</time>
      </trkpt>
      <trkpt lat="59.9667767" lon="17.711849">
        <ele>27.5349</ele>
        <time>2012-07-30T21:04:37Z</time>
      </trkpt>
      <trkpt lat="59.9671607" lon="17.7129876">
        <ele>27.0543</ele>
        <time>2012-07-30T21:04:47Z</time>
      </trkpt>
      <trkpt lat="59.9673294" lon="17.7138911">
        <ele>25.1317</ele>
        <time>2012-07-30T21:04:53Z</time>
      </trkpt>
      <trkpt lat="59.9674812" lon="17.7150009">
        <ele>22.7283</ele>
        <time>2012-07-30T21:04:59Z</time>
      </trkpt>
      <trkpt lat="59.9675197" lon="17.7153491">
        <ele>21.767</ele>
        <time>2012-07-30T21:05:01Z</time>
      </trkpt>
      <trkpt lat="59.9677346" lon="17.7161201">
        <ele>23.6896</ele>
        <time>2012-07-30T21:05:06Z</time>
      </trkpt>
      <trkpt lat="59.9678253" lon="17.7163486">
        <ele>24.651</ele>
        <time>2012-07-30T21:05:08Z</time>
      </trkpt>
      <trkpt lat="59.9680071" lon="17.7166837">
        <ele>27.5349</ele>
        <time>2012-07-30T21:05:12Z</time>
      </trkpt>
      <trkpt lat="59.968291" lon="17.7170329">
        <ele>29.9381</ele>
        <time>2012-07-30T21:05:19Z</time>
      </trkpt>
      <trkpt lat="59.9684987" lon="17.7171812">
        <ele>31.3801</ele>
        <time>2012-07-30T21:05:24Z</time>
      </trkpt>
      <trkpt lat="59.9689007" lon="17.7173569">
        <ele>31.8607</ele>
        <time>2012-07-30T21:05:32Z</time>
      </trkpt>
      <trkpt lat="59.9693306" lon="17.7175311">
        <ele>31.3801</ele>
        <time>2012-07-30T21:05:39Z</time>
      </trkpt>
      <trkpt lat="59.9698052" lon="17.7178305">
        <ele>30.8995</ele>
        <time>2012-07-30T21:05:46Z</time>
      </trkpt>
      <trkpt lat="59.9703559" lon="17.7183195">
        <ele>30.8995</ele>
        <time>2012-07-30T21:05:54Z</time>
      </trkpt>
      <trkpt lat="59.9710577" lon="17.7189536">
        <ele>30.4188</ele>
        <time>2012-07-30T21:06:04Z</time>
      </trkpt>
      <trkpt lat="59.9717068" lon="17.7195393">
        <ele>29.9381</ele>
        <time>2012-07-30T21:06:13Z</time>
      </trkpt>
      <trkpt lat="59.9725371" lon="17.7202879">
        <ele>29.4575</ele>
        <time>2012-07-30T21:06:24Z</time>
      </trkpt>
      <trkpt lat="59.973111" lon="17.7209339">
        <ele>28.4962</ele>
        <time>2012-07-30T21:06:32Z</time>
      </trkpt>
      <trkpt lat="59.9734896" lon="17.7215884">
        <ele>28.4962</ele>
        <time>2012-07-30T21:06:38Z</time>
      </trkpt>
      <trkpt lat="59.9736561" lon="17.7219699">
        <ele>28.0155</ele>
        <time>2012-07-30T21:06:41Z</time>
      </trkpt>
      <trkpt lat="59.9740104" lon="17.723283">
        <ele>27.5349</ele>
        <time>2012-07-30T21:06:50Z</time>
      </trkpt>
      <trkpt lat="59.9741735" lon="17.7243122">
        <ele>28.0155</ele>
        <time>2012-07-30T21:06:57Z</time>
      </trkpt>
      <trkpt lat="59.9743535" lon="17.7257457">
        <ele>28.0155</ele>
        <time>2012-07-30T21:07:07Z</time>
      </trkpt>
      <trkpt lat="59.9744036" lon="17.7268967">
        <ele>27.5349</ele>
        <time>2012-07-30T21:07:15Z</time>
      </trkpt>
      <trkpt lat="59.9744278" lon="17.7282098">
        <ele>26.5736</ele>
        <time>2012-07-30T21:07:24Z</time>
      </trkpt>
      <trkpt lat="59.9744541" lon="17.7291592">
        <ele>27.0543</ele>
        <time>2012-07-30T21:07:31Z</time>
      </trkpt>
      <trkpt lat="59.9744309" lon="17.7299452">
        <ele>27.0543</ele>
        <time>2012-07-30T21:07:37Z</time>
      </trkpt>
      <trkpt lat="59.9743442" lon="17.7311243">
        <ele>27.5349</ele>
        <time>2012-07-30T21:07:46Z</time>
      </trkpt>
      <trkpt lat="59.9743356" lon="17.7323897">
        <ele>27.5349</ele>
        <time>2012-07-30T21:07:55Z</time>
      </trkpt>
      <trkpt lat="59.9743214" lon="17.7335462">
        <ele>27.5349</ele>
        <time>2012-07-30T21:08:03Z</time>
      </trkpt>
      <trkpt lat="59.9742849" lon="17.7346482">
        <ele>28.0155</ele>
        <time>2012-07-30T21:08:11Z</time>
      </trkpt>
      <trkpt lat="59.9743464" lon="17.7354758">
        <ele>28.9769</ele>
        <time>2012-07-30T21:08:17Z</time>
      </trkpt>
      <trkpt lat="59.9745476" lon="17.7364985">
        <ele>28.9769</ele>
        <time>2012-07-30T21:08:25Z</time>
      </trkpt>
      <trkpt lat="59.9748174" lon="17.7372785">
        <ele>28.9769</ele>
        <time>2012-07-30T21:08:32Z</time>
      </trkpt>
      <trkpt lat="59.9751378" lon="17.7379044">
        <ele>29.4575</ele>
        <time>2012-07-30T21:08:39Z</time>
      </trkpt>
      <trkpt lat="59.975595" lon="17.7386862">
        <ele>29.9381</ele>
        <time>2012-07-30T21:08:48Z</time>
      </trkpt>
      <trkpt lat="59.9759879" lon="17.7393776">
        <ele>30.8995</ele>
        <time>2012-07-30T21:08:56Z</time>
      </trkpt>
      <trkpt lat="59.9761573" lon="17.739651">
        <ele>32.3416</ele>
        <time>2012-07-30T21:09:00Z</time>
      </trkpt>
      <trkpt lat="59.976392" lon="17.7397642">
        <ele>34.2642</ele>
        <time>2012-07-30T21:09:06Z</time>
      </trkpt>
      <trkpt lat="59.9764698" lon="17.7397003">
        <ele>34.2642</ele>
        <time>2012-07-30T21:09:08Z</time>
      </trkpt>
      <trkpt lat="59.9768436" lon="17.7393999">
        <ele>35.2255</ele>
        <time>2012-07-30T21:09:17Z</time>
      </trkpt>
      <trkpt lat="59.9771495" lon="17.7392712">
        <ele>35.7061</ele>
        <time>2012-07-30T21:09:24Z</time>
      </trkpt>
      <trkpt lat="59.9775121" lon="17.7390824">
        <ele>36.6675</ele>
        <time>2012-07-30T21:09:32Z</time>
      </trkpt>
      <trkpt lat="59.9778002" lon="17.739059">
        <ele>38.1094</ele>
        <time>2012-07-30T21:09:39Z</time>
      </trkpt>
      <trkpt lat="59.9781999" lon="17.7392346">
        <ele>38.1094</ele>
        <time>2012-07-30T21:09:49Z</time>
      </trkpt>
      <trkpt lat="59.9785445" lon="17.7393072">
        <ele>38.1094</ele>
        <time>2012-07-30T21:09:56Z</time>
      </trkpt>
      <trkpt lat="59.9789669" lon="17.7393052">
        <ele>38.1094</ele>
        <time>2012-07-30T21:10:03Z</time>
      </trkpt>
      <trkpt lat="59.9793126" lon="17.739128">
        <ele>38.5901</ele>
        <time>2012-07-30T21:10:09Z</time>
      </trkpt>
      <trkpt lat="59.9796426" lon="17.7389191">
        <ele>39.0707</ele>
        <time>2012-07-30T21:10:16Z</time>
      </trkpt>
      <trkpt lat="59.9799794" lon="17.7387886">
        <ele>38.5901</ele>
        <time>2012-07-30T21:10:23Z</time>
      </trkpt>
      <trkpt lat="59.9801848" lon="17.738814">
        <ele>37.6287</ele>
        <time>2012-07-30T21:10:27Z</time>
      </trkpt>
      <trkpt lat="59.9805978" lon="17.7387633">
        <ele>36.1868</ele>
        <time>2012-07-30T21:10:35Z</time>
      </trkpt>
      <trkpt lat="59.9809765" lon="17.7386435">
        <ele>36.1868</ele>
        <time>2012-07-30T21:10:43Z</time>
      </trkpt>
      <trkpt lat="59.9813001" lon="17.7385476">
        <ele>35.7061</ele>
        <time>2012-07-30T21:10:51Z</time>
      </trkpt>
      <trkpt lat="59.9815617" lon="17.738464">
        <ele>34.7449</ele>
        <time>2012-07-30T21:10:58Z</time>
      </trkpt>
      <trkpt lat="59.9817405" lon="17.7384015">
        <ele>35.2255</ele>
        <time>2012-07-30T21:11:04Z</time>
      </trkpt>
      <trkpt lat="59.9820193" lon="17.7382769">
        <ele>35.7061</ele>
        <time>2012-07-30T21:11:11Z</time>
      </trkpt>
      <trkpt lat="59.9823107" lon="17.7381692">
        <ele>34.7449</ele>
        <time>2012-07-30T21:11:16Z</time>
      </trkpt>
      <trkpt lat="59.9826524" lon="17.7381338">
        <ele>33.7834</ele>
        <time>2012-07-30T21:11:21Z</time>
      </trkpt>
      <trkpt lat="59.983062" lon="17.738195">
        <ele>34.2642</ele>
        <time>2012-07-30T21:11:27Z</time>
      </trkpt>
      <trkpt lat="59.9834215" lon="17.7381379">
        <ele>34.7449</ele>
        <time>2012-07-30T21:11:32Z</time>
      </trkpt>
      <trkpt lat="59.9840486" lon="17.738006">
        <ele>34.2642</ele>
        <time>2012-07-30T21:11:41Z</time>
      </trkpt>
      <trkpt lat="59.984396" lon="17.7380487">
        <ele>34.2642</ele>
        <time>2012-07-30T21:11:47Z</time>
      </trkpt>
      <trkpt lat="59.9848367" lon="17.7381694">
        <ele>34.2642</ele>
        <time>2012-07-30T21:11:54Z</time>
      </trkpt>
      <trkpt lat="59.9852087" lon="17.738252">
        <ele>39.0707</ele>
        <time>2012-07-30T21:12:01Z</time>
      </trkpt>
      <trkpt lat="59.9855541" lon="17.738363">
        <ele>40.0321</ele>
        <time>2012-07-30T21:12:07Z</time>
      </trkpt>
      <trkpt lat="59.9857935" lon="17.7384609">
        <ele>40.5128</ele>
        <time>2012-07-30T21:12:11Z</time>
      </trkpt>
      <trkpt lat="59.9861963" lon="17.7386963">
        <ele>43.3966</ele>
        <time>2012-07-30T21:12:18Z</time>
      </trkpt>
      <trkpt lat="59.9864328" lon="17.7388851">
        <ele>46.2806</ele>
        <time>2012-07-30T21:12:23Z</time>
      </trkpt>
      <trkpt lat="59.9865234" lon="17.7389552">
        <ele>46.7612</ele>
        <time>2012-07-30T21:12:25Z</time>
      </trkpt>
      <trkpt lat="59.9868878" lon="17.7393086">
        <ele>46.7612</ele>
        <time>2012-07-30T21:12:34Z</time>
      </trkpt>
      <trkpt lat="59.9870148" lon="17.739393">
        <ele>46.2806</ele>
        <time>2012-07-30T21:12:37Z</time>
      </trkpt>
      <trkpt lat="59.9873739" lon="17.7394135">
        <ele>47.2418</ele>
        <time>2012-07-30T21:12:43Z</time>
      </trkpt>
      <trkpt lat="59.9878505" lon="17.7393553">
        <ele>46.2806</ele>
        <time>2012-07-30T21:12:51Z</time>
      </trkpt>
      <trkpt lat="59.9881145" lon="17.7393035">
        <ele>44.8386</ele>
        <time>2012-07-30T21:12:56Z</time>
      </trkpt>
      <trkpt lat="59.9883938" lon="17.7391914">
        <ele>43.3966</ele>
        <time>2012-07-30T21:13:02Z</time>
      </trkpt>
      <trkpt lat="59.9887035" lon="17.7390179">
        <ele>44.358</ele>
        <time>2012-07-30T21:13:09Z</time>
      </trkpt>
      <trkpt lat="59.9890083" lon="17.7388026">
        <ele>44.358</ele>
        <time>2012-07-30T21:13:16Z</time>
      </trkpt>
      <trkpt lat="59.9893496" lon="17.7386097">
        <ele>47.7225</ele>
        <time>2012-07-30T21:13:23Z</time>
      </trkpt>
      <trkpt lat="59.9896577" lon="17.7384909">
        <ele>47.2418</ele>
        <time>2012-07-30T21:13:28Z</time>
      </trkpt>
      <trkpt lat="59.9902188" lon="17.7382725">
        <ele>45.3192</ele>
        <time>2012-07-30T21:13:36Z</time>
      </trkpt>
      <trkpt lat="59.9907182" lon="17.7380351">
        <ele>43.8773</ele>
        <time>2012-07-30T21:13:43Z</time>
      </trkpt>
      <trkpt lat="59.9910641" lon="17.7378271">
        <ele>43.3966</ele>
        <time>2012-07-30T21:13:48Z</time>
      </trkpt>
      <trkpt lat="59.9914491" lon="17.7376987">
        <ele>42.916</ele>
        <time>2012-07-30T21:13:54Z</time>
      </trkpt>
      <trkpt lat="59.9917486" lon="17.7376682">
        <ele>43.3966</ele>
        <time>2012-07-30T21:13:59Z</time>
      </trkpt>
      <trkpt lat="59.9919428" lon="17.737667">
        <ele>40.5128</ele>
        <time>2012-07-30T21:14:03Z</time>
      </trkpt>
      <trkpt lat="59.9920557" lon="17.7376033">
        <ele>41.9547</ele>
        <time>2012-07-30T21:14:05Z</time>
      </trkpt>
      <trkpt lat="59.9922412" lon="17.7375339">
        <ele>44.358</ele>
        <time>2012-07-30T21:14:09Z</time>
      </trkpt>
      <trkpt lat="59.9922637" lon="17.7374699">
        <ele>48.684</ele>
        <time>2012-07-30T21:14:13Z</time>
      </trkpt>
      <trkpt lat="59.9922396" lon="17.7374877">
        <ele>50.6066</ele>
        <time>2012-07-30T21:14:14Z</time>
      </trkpt>
      <trkpt lat="59.9919774" lon="17.7375452">
        <ele>51.0872</ele>
        <time>2012-07-30T21:14:20Z</time>
      </trkpt>
      <trkpt lat="59.9916951" lon="17.7375702">
        <ele>54.4518</ele>
        <time>2012-07-30T21:14:25Z</time>
      </trkpt>
      <trkpt lat="59.9913199" lon="17.7376014">
        <ele>55.8938</ele>
        <time>2012-07-30T21:14:31Z</time>
      </trkpt>
      <trkpt lat="59.990786" lon="17.7378723">
        <ele>58.7777</ele>
        <time>2012-07-30T21:14:39Z</time>
      </trkpt>
      <trkpt lat="59.9903882" lon="17.7380718">
        <ele>59.2584</ele>
        <time>2012-07-30T21:14:45Z</time>
      </trkpt>
      <trkpt lat="59.9903252" lon="17.7380966">
        <ele>58.7777</ele>
        <time>2012-07-30T21:14:46Z</time>
      </trkpt>
      <trkpt lat="59.9899332" lon="17.7382479">
        <ele>59.2584</ele>
        <time>2012-07-30T21:14:52Z</time>
      </trkpt>
      <trkpt lat="59.9894978" lon="17.7383835">
        <ele>59.2584</ele>
        <time>2012-07-30T21:14:59Z</time>
      </trkpt>
      <trkpt lat="59.9891231" lon="17.7385825">
        <ele>61.6617</ele>
        <time>2012-07-30T21:15:06Z</time>
      </trkpt>
      <trkpt lat="59.9888368" lon="17.7387978">
        <ele>63.5844</ele>
        <time>2012-07-30T21:15:11Z</time>
      </trkpt>
      <trkpt lat="59.9883907" lon="17.7390884">
        <ele>65.0264</ele>
        <time>2012-07-30T21:15:18Z</time>
      </trkpt>
      <trkpt lat="59.9882665" lon="17.7391575">
        <ele>65.5071</ele>
        <time>2012-07-30T21:15:20Z</time>
      </trkpt>
      <trkpt lat="59.9878553" lon="17.7392564">
        <ele>65.9877</ele>
        <time>2012-07-30T21:15:26Z</time>
      </trkpt>
      <trkpt lat="59.9874536" lon="17.7393051">
        <ele>64.5457</ele>
        <time>2012-07-30T21:15:31Z</time>
      </trkpt>
      <trkpt lat="59.9872033" lon="17.7393315">
        <ele>62.6229</ele>
        <time>2012-07-30T21:15:34Z</time>
      </trkpt>
      <trkpt lat="59.9868348" lon="17.7391228">
        <ele>59.7391</ele>
        <time>2012-07-30T21:15:39Z</time>
      </trkpt>
      <trkpt lat="59.9863831" lon="17.7387222">
        <ele>54.4518</ele>
        <time>2012-07-30T21:15:45Z</time>
      </trkpt>
      <trkpt lat="59.9863022" lon="17.7386472">
        <ele>53.9712</ele>
        <time>2012-07-30T21:15:46Z</time>
      </trkpt>
      <trkpt lat="59.9856825" lon="17.7383183">
        <ele>51.0872</ele>
        <time>2012-07-30T21:15:52Z</time>
      </trkpt>
      <trkpt lat="59.9849542" lon="17.7380863">
        <ele>49.6453</ele>
        <time>2012-07-30T21:15:59Z</time>
      </trkpt>
      <trkpt lat="59.9845674" lon="17.7379767">
        <ele>48.2034</ele>
        <time>2012-07-30T21:16:03Z</time>
      </trkpt>
      <trkpt lat="59.9841338" lon="17.7378952">
        <ele>46.2806</ele>
        <time>2012-07-30T21:16:08Z</time>
      </trkpt>
      <trkpt lat="59.983618" lon="17.7380075">
        <ele>48.2034</ele>
        <time>2012-07-30T21:16:14Z</time>
      </trkpt>
      <trkpt lat="59.983207" lon="17.7380855">
        <ele>47.7225</ele>
        <time>2012-07-30T21:16:19Z</time>
      </trkpt>
      <trkpt lat="59.9830002" lon="17.7380953">
        <ele>47.7225</ele>
        <time>2012-07-30T21:16:22Z</time>
      </trkpt>
      <trkpt lat="59.9826151" lon="17.7380251">
        <ele>47.2418</ele>
        <time>2012-07-30T21:16:28Z</time>
      </trkpt>
      <trkpt lat="59.9824301" lon="17.7380267">
        <ele>46.7612</ele>
        <time>2012-07-30T21:16:31Z</time>
      </trkpt>
      <trkpt lat="59.9820655" lon="17.7381546">
        <ele>46.2806</ele>
        <time>2012-07-30T21:16:37Z</time>
      </trkpt>
      <trkpt lat="59.9817253" lon="17.738313">
        <ele>46.7612</ele>
        <time>2012-07-30T21:16:43Z</time>
      </trkpt>
      <trkpt lat="59.9814004" lon="17.7384426">
        <ele>47.7225</ele>
        <time>2012-07-30T21:16:48Z</time>
      </trkpt>
      <trkpt lat="59.9810007" lon="17.7385777">
        <ele>47.7225</ele>
        <time>2012-07-30T21:16:53Z</time>
      </trkpt>
      <trkpt lat="59.9804683" lon="17.7387472">
        <ele>45.7999</ele>
        <time>2012-07-30T21:17:00Z</time>
      </trkpt>
      <trkpt lat="59.9803968" lon="17.738757">
        <ele>45.7999</ele>
        <time>2012-07-30T21:17:01Z</time>
      </trkpt>
      <trkpt lat="59.9800336" lon="17.7387212">
        <ele>45.7999</ele>
        <time>2012-07-30T21:17:06Z</time>
      </trkpt>
      <trkpt lat="59.979686" lon="17.7388478">
        <ele>44.358</ele>
        <time>2012-07-30T21:17:11Z</time>
      </trkpt>
      <trkpt lat="59.9792729" lon="17.7390637">
        <ele>43.8773</ele>
        <time>2012-07-30T21:17:17Z</time>
      </trkpt>
      <trkpt lat="59.9788163" lon="17.7392413">
        <ele>42.916</ele>
        <time>2012-07-30T21:17:23Z</time>
      </trkpt>
      <trkpt lat="59.9784438" lon="17.7391912">
        <ele>41.474</ele>
        <time>2012-07-30T21:17:28Z</time>
      </trkpt>
      <trkpt lat="59.9779705" lon="17.7390242">
        <ele>40.9934</ele>
        <time>2012-07-30T21:17:35Z</time>
      </trkpt>
      <trkpt lat="59.9779011" lon="17.7389802">
        <ele>40.5128</ele>
        <time>2012-07-30T21:17:36Z</time>
      </trkpt>
      <trkpt lat="59.9775049" lon="17.7389447">
        <ele>39.0707</ele>
        <time>2012-07-30T21:17:41Z</time>
      </trkpt>
      <trkpt lat="59.9769955" lon="17.7391973">
        <ele>36.6675</ele>
        <time>2012-07-30T21:17:47Z</time>
      </trkpt>
      <trkpt lat="59.9766693" lon="17.7393667">
        <ele>35.2255</ele>
        <time>2012-07-30T21:17:51Z</time>
      </trkpt>
      <trkpt lat="59.9763817" lon="17.7397155">
        <ele>34.7449</ele>
        <time>2012-07-30T21:17:55Z</time>
      </trkpt>
      <trkpt lat="59.9762414" lon="17.7400864">
        <ele>34.7449</ele>
        <time>2012-07-30T21:17:58Z</time>
      </trkpt>
      <trkpt lat="59.9759777" lon="17.7409462">
        <ele>34.7449</ele>
        <time>2012-07-30T21:18:05Z</time>
      </trkpt>
      <trkpt lat="59.975742" lon="17.7418906">
        <ele>35.7061</ele>
        <time>2012-07-30T21:18:13Z</time>
      </trkpt>
      <trkpt lat="59.975537" lon="17.7426654">
        <ele>36.1868</ele>
        <time>2012-07-30T21:18:20Z</time>
      </trkpt>
      <trkpt lat="59.9753241" lon="17.7435788">
        <ele>36.1868</ele>
        <time>2012-07-30T21:18:28Z</time>
      </trkpt>
      <trkpt lat="59.9750964" lon="17.744652">
        <ele>35.7061</ele>
        <time>2012-07-30T21:18:37Z</time>
      </trkpt>
      <trkpt lat="59.9748438" lon="17.7454144">
        <ele>36.6675</ele>
        <time>2012-07-30T21:18:44Z</time>
      </trkpt>
      <trkpt lat="59.9745018" lon="17.7460869">
        <ele>37.6287</ele>
        <time>2012-07-30T21:18:52Z</time>
      </trkpt>
      <trkpt lat="59.9741118" lon="17.7466325">
        <ele>37.6287</ele>
        <time>2012-07-30T21:18:59Z</time>
      </trkpt>
      <trkpt lat="59.9736377" lon="17.7472146">
        <ele>37.6287</ele>
        <time>2012-07-30T21:19:07Z</time>
      </trkpt>
      <trkpt lat="59.9731632" lon="17.7477029">
        <ele>37.1481</ele>
        <time>2012-07-30T21:19:14Z</time>
      </trkpt>
      <trkpt lat="59.9728064" lon="17.7482194">
        <ele>37.6287</ele>
        <time>2012-07-30T21:19:20Z</time>
      </trkpt>
      <trkpt lat="59.9725162" lon="17.7487748">
        <ele>39.0707</ele>
        <time>2012-07-30T21:19:26Z</time>
      </trkpt>
      <trkpt lat="59.9721109" lon="17.7496642">
        <ele>39.5513</ele>
        <time>2012-07-30T21:19:35Z</time>
      </trkpt>
      <trkpt lat="59.9717875" lon="17.7503728">
        <ele>37.6287</ele>
        <time>2012-07-30T21:19:42Z</time>
      </trkpt>
      <trkpt lat="59.9713688" lon="17.7510195">
        <ele>36.1868</ele>
        <time>2012-07-30T21:19:49Z</time>
      </trkpt>
      <trkpt lat="59.9707972" lon="17.7517449">
        <ele>35.2255</ele>
        <time>2012-07-30T21:19:58Z</time>
      </trkpt>
      <trkpt lat="59.9704734" lon="17.752381">
        <ele>34.2642</ele>
        <time>2012-07-30T21:20:04Z</time>
      </trkpt>
      <trkpt lat="59.970189" lon="17.7532431">
        <ele>32.8223</ele>
        <time>2012-07-30T21:20:11Z</time>
      </trkpt>
      <trkpt lat="59.9699134" lon="17.7539377">
        <ele>32.3416</ele>
        <time>2012-07-30T21:20:17Z</time>
      </trkpt>
      <trkpt lat="59.9694922" lon="17.7548212">
        <ele>32.3416</ele>
        <time>2012-07-30T21:20:26Z</time>
      </trkpt>
      <trkpt lat="59.9690671" lon="17.7557349">
        <ele>32.3416</ele>
        <time>2012-07-30T21:20:35Z</time>
      </trkpt>
      <trkpt lat="59.9686159" lon="17.7566052">
        <ele>32.8223</ele>
        <time>2012-07-30T21:20:44Z</time>
      </trkpt>
      <trkpt lat="59.9680854" lon="17.7573708">
        <ele>31.8607</ele>
        <time>2012-07-30T21:20:53Z</time>
      </trkpt>
      <trkpt lat="59.9674995" lon="17.7580565">
        <ele>29.9381</ele>
        <time>2012-07-30T21:21:01Z</time>
      </trkpt>
      <trkpt lat="59.96697" lon="17.7585511">
        <ele>28.9769</ele>
        <time>2012-07-30T21:21:08Z</time>
      </trkpt>
      <trkpt lat="59.9664167" lon="17.7591257">
        <ele>28.9769</ele>
        <time>2012-07-30T21:21:16Z</time>
      </trkpt>
      <trkpt lat="59.9659926" lon="17.7598212">
        <ele>28.0155</ele>
        <time>2012-07-30T21:21:23Z</time>
      </trkpt>
      <trkpt lat="59.9654994" lon="17.7606641">
        <ele>28.4962</ele>
        <time>2012-07-30T21:21:32Z</time>
      </trkpt>
      <trkpt lat="59.965229" lon="17.7612567">
        <ele>28.4962</ele>
        <time>2012-07-30T21:21:38Z</time>
      </trkpt>
      <trkpt lat="59.9648234" lon="17.7623234">
        <ele>28.0155</ele>
        <time>2012-07-30T21:21:48Z</time>
      </trkpt>
      <trkpt lat="59.9645875" lon="17.7631251">
        <ele>28.0155</ele>
        <time>2012-07-30T21:21:55Z</time>
      </trkpt>
      <trkpt lat="59.9643257" lon="17.7641634">
        <ele>28.4962</ele>
        <time>2012-07-30T21:22:04Z</time>
      </trkpt>
      <trkpt lat="59.9640997" lon="17.7651554">
        <ele>29.9381</ele>
        <time>2012-07-30T21:22:13Z</time>
      </trkpt>
      <trkpt lat="59.964069" lon="17.765675">
        <ele>31.3801</ele>
        <time>2012-07-30T21:22:19Z</time>
      </trkpt>
      <trkpt lat="59.9640702" lon="17.766156">
        <ele>30.8995</ele>
        <time>2012-07-30T21:22:26Z</time>
      </trkpt>
      <trkpt lat="59.9640825" lon="17.7665225">
        <ele>31.3801</ele>
        <time>2012-07-30T21:22:31Z</time>
      </trkpt>
      <trkpt lat="59.9640707" lon="17.7670967">
        <ele>31.8607</ele>
        <time>2012-07-30T21:22:37Z</time>
      </trkpt>
      <trkpt lat="59.9639661" lon="17.7677242">
        <ele>31.8607</ele>
        <time>2012-07-30T21:22:43Z</time>
      </trkpt>
      <trkpt lat="59.9637903" lon="17.7684218">
        <ele>30.8995</ele>
        <time>2012-07-30T21:22:49Z</time>
      </trkpt>
      <trkpt lat="59.963533" lon="17.7693106">
        <ele>31.3801</ele>
        <time>2012-07-30T21:22:57Z</time>
      </trkpt>
      <trkpt lat="59.9635067" lon="17.7694184">
        <ele>31.3801</ele>
        <time>2012-07-30T21:22:58Z</time>
      </trkpt>
      <trkpt lat="59.9634523" lon="17.770096">
        <ele>32.3416</ele>
        <time>2012-07-30T21:23:04Z</time>
      </trkpt>
      <trkpt lat="59.9635056" lon="17.7707147">
        <ele>31.3801</ele>
        <time>2012-07-30T21:23:09Z</time>
      </trkpt>
      <trkpt lat="59.9636434" lon="17.7713778">
        <ele>30.8995</ele>
        <time>2012-07-30T21:23:14Z</time>
      </trkpt>
      <trkpt lat="59.9638682" lon="17.7723928">
        <ele>29.4575</ele>
        <time>2012-07-30T21:23:22Z</time>
      </trkpt>
      <trkpt lat="59.9638884" lon="17.7725257">
        <ele>29.9381</ele>
        <time>2012-07-30T21:23:23Z</time>
      </trkpt>
      <trkpt lat="59.9639215" lon="17.7728971">
        <ele>30.4188</ele>
        <time>2012-07-30T21:23:27Z</time>
      </trkpt>
      <trkpt lat="59.963934" lon="17.7728119">
        <ele>30.8995</ele>
        <time>2012-07-30T21:23:30Z</time>
      </trkpt>
      <trkpt lat="59.9638812" lon="17.7723514">
        <ele>31.3801</ele>
        <time>2012-07-30T21:23:36Z</time>
      </trkpt>
      <trkpt lat="59.9637521" lon="17.7716787">
        <ele>32.8223</ele>
        <time>2012-07-30T21:23:43Z</time>
      </trkpt>
      <trkpt lat="59.9635707" lon="17.7708545">
        <ele>33.7834</ele>
        <time>2012-07-30T21:23:51Z</time>
      </trkpt>
      <trkpt lat="59.9635018" lon="17.7702109">
        <ele>34.2642</ele>
        <time>2012-07-30T21:23:57Z</time>
      </trkpt>
      <trkpt lat="59.9634916" lon="17.7699874">
        <ele>35.2255</ele>
        <time>2012-07-30T21:23:59Z</time>
      </trkpt>
      <trkpt lat="59.9634999" lon="17.7697635">
        <ele>35.2255</ele>
        <time>2012-07-30T21:24:01Z</time>
      </trkpt>
      <trkpt lat="59.963578" lon="17.7692967">
        <ele>34.7449</ele>
        <time>2012-07-30T21:24:05Z</time>
      </trkpt>
      <trkpt lat="59.9639226" lon="17.7680721">
        <ele>34.2642</ele>
        <time>2012-07-30T21:24:16Z</time>
      </trkpt>
      <trkpt lat="59.9640806" lon="17.7672034">
        <ele>34.7449</ele>
        <time>2012-07-30T21:24:24Z</time>
      </trkpt>
      <trkpt lat="59.9641042" lon="17.7664877">
        <ele>34.7449</ele>
        <time>2012-07-30T21:24:30Z</time>
      </trkpt>
      <trkpt lat="59.9640967" lon="17.766105">
        <ele>33.3029</ele>
        <time>2012-07-30T21:24:33Z</time>
      </trkpt>
      <trkpt lat="59.9641045" lon="17.765504">
        <ele>31.8607</ele>
        <time>2012-07-30T21:24:37Z</time>
      </trkpt>
      <trkpt lat="59.9642301" lon="17.7646678">
        <ele>28.9769</ele>
        <time>2012-07-30T21:24:42Z</time>
      </trkpt>
      <trkpt lat="59.9645266" lon="17.7635805">
        <ele>27.5349</ele>
        <time>2012-07-30T21:24:49Z</time>
      </trkpt>
      <trkpt lat="59.9648794" lon="17.762369">
        <ele>25.6123</ele>
        <time>2012-07-30T21:24:57Z</time>
      </trkpt>
      <trkpt lat="59.9651767" lon="17.7615949">
        <ele>26.0929</ele>
        <time>2012-07-30T21:25:03Z</time>
      </trkpt>
      <trkpt lat="59.9655207" lon="17.7607694">
        <ele>25.1317</ele>
        <time>2012-07-30T21:25:10Z</time>
      </trkpt>
      <trkpt lat="59.9659283" lon="17.7601151">
        <ele>23.209</ele>
        <time>2012-07-30T21:25:17Z</time>
      </trkpt>
      <trkpt lat="59.9663982" lon="17.759331">
        <ele>22.2476</ele>
        <time>2012-07-30T21:25:25Z</time>
      </trkpt>
      <trkpt lat="59.9667606" lon="17.7588776">
        <ele>21.2864</ele>
        <time>2012-07-30T21:25:31Z</time>
      </trkpt>
      <trkpt lat="59.9670975" lon="17.7585746">
        <ele>21.767</ele>
        <time>2012-07-30T21:25:37Z</time>
      </trkpt>
      <trkpt lat="59.9675443" lon="17.7581347">
        <ele>23.6896</ele>
        <time>2012-07-30T21:25:46Z</time>
      </trkpt>
      <trkpt lat="59.9679242" lon="17.7577258">
        <ele>25.1317</ele>
        <time>2012-07-30T21:25:54Z</time>
      </trkpt>
      <trkpt lat="59.9682662" lon="17.7572769">
        <ele>26.5736</ele>
        <time>2012-07-30T21:26:03Z</time>
      </trkpt>
      <trkpt lat="59.9685431" lon="17.7568636">
        <ele>27.0543</ele>
        <time>2012-07-30T21:26:10Z</time>
      </trkpt>
      <trkpt lat="59.9689135" lon="17.7561972">
        <ele>27.0543</ele>
        <time>2012-07-30T21:26:19Z</time>
      </trkpt>
      <trkpt lat="59.9692633" lon="17.7554629">
        <ele>26.0929</ele>
        <time>2012-07-30T21:26:27Z</time>
      </trkpt>
      <trkpt lat="59.9696229" lon="17.7546972">
        <ele>26.0929</ele>
        <time>2012-07-30T21:26:35Z</time>
      </trkpt>
      <trkpt lat="59.9697226" lon="17.7545206">
        <ele>26.0929</ele>
        <time>2012-07-30T21:26:37Z</time>
      </trkpt>
      <trkpt lat="59.970167" lon="17.7534987">
        <ele>25.1317</ele>
        <time>2012-07-30T21:26:47Z</time>
      </trkpt>
      <trkpt lat="59.9704911" lon="17.7525941">
        <ele>24.651</ele>
        <time>2012-07-30T21:26:55Z</time>
      </trkpt>
      <trkpt lat="59.9708967" lon="17.7518016">
        <ele>25.1317</ele>
        <time>2012-07-30T21:27:03Z</time>
      </trkpt>
      <trkpt lat="59.9713111" lon="17.7513136">
        <ele>27.0543</ele>
        <time>2012-07-30T21:27:10Z</time>
      </trkpt>
      <trkpt lat="59.9715948" lon="17.7509834">
        <ele>27.0543</ele>
        <time>2012-07-30T21:27:15Z</time>
      </trkpt>
      <trkpt lat="59.9720671" lon="17.7501689">
        <ele>30.4188</ele>
        <time>2012-07-30T21:27:25Z</time>
      </trkpt>
      <trkpt lat="59.9723074" lon="17.7495628">
        <ele>32.3416</ele>
        <time>2012-07-30T21:27:31Z</time>
      </trkpt>
      <trkpt lat="59.9726726" lon="17.7487313">
        <ele>32.3416</ele>
        <time>2012-07-30T21:27:39Z</time>
      </trkpt>
      <trkpt lat="59.9729861" lon="17.7480751">
        <ele>30.4188</ele>
        <time>2012-07-30T21:27:45Z</time>
      </trkpt>
      <trkpt lat="59.9733156" lon="17.7476666">
        <ele>30.4188</ele>
        <time>2012-07-30T21:27:50Z</time>
      </trkpt>
      <trkpt lat="59.9737273" lon="17.7472447">
        <ele>31.3801</ele>
        <time>2012-07-30T21:27:57Z</time>
      </trkpt>
      <trkpt lat="59.9741529" lon="17.7467142">
        <ele>32.3416</ele>
        <time>2012-07-30T21:28:05Z</time>
      </trkpt>
      <trkpt lat="59.9745677" lon="17.7461402">
        <ele>32.8223</ele>
        <time>2012-07-30T21:28:13Z</time>
      </trkpt>
      <trkpt lat="59.9746138" lon="17.7460686">
        <ele>33.3029</ele>
        <time>2012-07-30T21:28:14Z</time>
      </trkpt>
      <trkpt lat="59.9749488" lon="17.745328">
        <ele>32.8223</ele>
        <time>2012-07-30T21:28:22Z</time>
      </trkpt>
      <trkpt lat="59.9752577" lon="17.7442754">
        <ele>32.3416</ele>
        <time>2012-07-30T21:28:31Z</time>
      </trkpt>
      <trkpt lat="59.9753766" lon="17.7436415">
        <ele>31.8607</ele>
        <time>2012-07-30T21:28:36Z</time>
      </trkpt>
      <trkpt lat="59.9755841" lon="17.7427412">
        <ele>32.3416</ele>
        <time>2012-07-30T21:28:43Z</time>
      </trkpt>
      <trkpt lat="59.9758799" lon="17.7415616">
        <ele>31.3801</ele>
        <time>2012-07-30T21:28:52Z</time>
      </trkpt>
      <trkpt lat="59.9761159" lon="17.7406711">
        <ele>30.8995</ele>
        <time>2012-07-30T21:28:58Z</time>
      </trkpt>
      <trkpt lat="59.9763527" lon="17.7399538">
        <ele>30.4188</ele>
        <time>2012-07-30T21:29:03Z</time>
      </trkpt>
      <trkpt lat="59.9766233" lon="17.7394937">
        <ele>30.4188</ele>
        <time>2012-07-30T21:29:07Z</time>
      </trkpt>
      <trkpt lat="59.9767863" lon="17.7393844">
        <ele>30.8995</ele>
        <time>2012-07-30T21:29:09Z</time>
      </trkpt>
      <trkpt lat="59.9773057" lon="17.7391403">
        <ele>32.3416</ele>
        <time>2012-07-30T21:29:16Z</time>
      </trkpt>
      <trkpt lat="59.9776892" lon="17.7390205">
        <ele>34.2642</ele>
        <time>2012-07-30T21:29:22Z</time>
      </trkpt>
      <trkpt lat="59.9779375" lon="17.7391015">
        <ele>34.2642</ele>
        <time>2012-07-30T21:29:27Z</time>
      </trkpt>
      <trkpt lat="59.9782532" lon="17.7392389">
        <ele>33.3029</ele>
        <time>2012-07-30T21:29:34Z</time>
      </trkpt>
      <trkpt lat="59.9785926" lon="17.7393241">
        <ele>29.4575</ele>
        <time>2012-07-30T21:29:41Z</time>
      </trkpt>
      <trkpt lat="59.9786434" lon="17.7393268">
        <ele>28.4962</ele>
        <time>2012-07-30T21:29:42Z</time>
      </trkpt>
    </trkseg>
  </trk>
</gpx>